createdAt,value
2022-08-07T00:01:44.205Z,20.60
2022-08-07T00:04:06.145Z,20.60
2022-08-07T00:06:36.457Z,20.60
2022-08-07T00:09:16.624Z,20.60
2022-08-07T00:11:55.477Z,20.60
2022-08-07T00:14:25.392Z,20.50
2022-08-07T00:17:01.666Z,20.50
2022-08-07T00:19:59.917Z,20.50
2022-08-07T00:22:24.611Z,20.50
2022-08-07T00:25:15.800Z,20.50
2022-08-07T00:27:52.760Z,20.50
2022-08-07T00:30:26.423Z,20.40
2022-08-07T00:33:00.108Z,20.40
2022-08-07T00:35:29.706Z,20.40
2022-08-07T00:37:56.959Z,20.30
2022-08-07T00:40:36.978Z,20.30
2022-08-07T00:43:09.801Z,20.30
2022-08-07T00:45:39.006Z,20.20
2022-08-07T00:48:09.867Z,20.20
2022-08-07T00:50:51.120Z,20.20
2022-08-07T00:53:20.443Z,20.20
2022-08-07T00:56:02.484Z,20.10
2022-08-07T00:58:30.952Z,20.10
2022-08-07T01:00:58.932Z,20.10
2022-08-07T01:03:56.659Z,20.10
2022-08-07T01:06:13.651Z,20.10
2022-08-07T01:08:53.538Z,20.00
2022-08-07T01:12:10.099Z,20.00
2022-08-07T01:14:10.035Z,20.00
2022-08-07T01:16:37.721Z,20.00
2022-08-07T01:19:18.333Z,20.00
2022-08-07T01:21:49.408Z,20.00
2022-08-07T01:24:22.435Z,20.00
2022-08-07T01:26:54.174Z,19.90
2022-08-07T01:29:24.242Z,19.90
2022-08-07T01:31:55.954Z,19.90
2022-08-07T01:34:30.956Z,19.80
2022-08-07T01:37:01.219Z,19.80
2022-08-07T01:39:40.534Z,19.80
2022-08-07T01:42:38.454Z,19.80
2022-08-07T01:45:18.219Z,19.70
2022-08-07T01:48:19.231Z,19.70
2022-08-07T01:50:43.165Z,19.70
2022-08-07T01:53:21.799Z,19.70
2022-08-07T01:56:10.371Z,19.70
2022-08-07T01:58:50.671Z,19.70
2022-08-07T02:02:01.671Z,19.60
2022-08-07T02:04:26.650Z,19.60
2022-08-07T02:06:59.365Z,19.60
2022-08-07T02:09:33.735Z,19.50
2022-08-07T02:12:18.295Z,19.50
2022-08-07T02:14:53.259Z,19.50
2022-08-07T02:17:34.137Z,19.50
2022-08-07T02:20:09.628Z,19.50
2022-08-07T02:22:47.204Z,19.50
2022-08-07T02:26:11.362Z,19.40
2022-08-07T02:28:14.131Z,19.50
2022-08-07T02:30:53.796Z,19.50
2022-08-07T02:33:23.168Z,19.40
2022-08-07T02:36:30.820Z,19.40
2022-08-07T02:38:40.180Z,19.40
2022-08-07T02:41:21.886Z,19.40
2022-08-07T02:43:52.390Z,19.40
2022-08-07T02:46:25.785Z,19.40
2022-08-07T02:48:54.703Z,19.40
2022-08-07T02:51:41.691Z,19.40
2022-08-07T02:54:15.203Z,19.40
2022-08-07T02:56:43.989Z,19.40
2022-08-07T02:59:18.785Z,19.40
2022-08-07T03:01:52.275Z,19.40
2022-08-07T03:04:24.334Z,19.40
2022-08-07T03:06:53.057Z,19.40
2022-08-07T03:09:43.199Z,19.40
2022-08-07T03:12:21.981Z,19.30
2022-08-07T03:14:56.292Z,19.30
2022-08-07T03:17:24.334Z,19.30
2022-08-07T03:19:55.546Z,19.30
2022-08-07T03:22:29.379Z,19.30
2022-08-07T03:24:59.934Z,19.20
2022-08-07T03:27:59.412Z,19.20
2022-08-07T03:30:18.636Z,19.20
2022-08-07T03:32:59.204Z,19.20
2022-08-07T03:35:38.014Z,19.10
2022-08-07T03:38:13.492Z,19.10
2022-08-07T03:40:44.277Z,19.10
2022-08-07T03:43:15.336Z,19.10
2022-08-07T03:45:48.832Z,19.10
2022-08-07T03:48:21.487Z,19.00
2022-08-07T03:50:55.651Z,19.00
2022-08-07T03:53:50.096Z,19.00
2022-08-07T03:56:18.679Z,19.00
2022-08-07T03:59:08.009Z,19.00
2022-08-07T04:01:46.887Z,19.00
2022-08-07T04:04:18.305Z,19.00
2022-08-07T04:06:50.833Z,18.90
2022-08-07T04:09:23.297Z,18.90
2022-08-07T04:12:24.399Z,18.90
2022-08-07T04:14:43.669Z,18.90
2022-08-07T04:17:20.320Z,18.90
2022-08-07T04:19:52.667Z,18.90
2022-08-07T04:22:28.741Z,18.90
2022-08-07T04:25:01.652Z,18.90
2022-08-07T04:27:36.273Z,18.90
2022-08-07T04:30:36.034Z,18.90
2022-08-07T04:33:15.792Z,18.90
2022-08-07T04:35:50.249Z,18.80
2022-08-07T04:38:20.626Z,18.90
2022-08-07T04:40:51.697Z,18.80
2022-08-07T04:44:12.566Z,18.80
2022-08-07T04:46:35.896Z,18.80
2022-08-07T04:49:24.660Z,18.80
2022-08-07T04:52:08.921Z,18.80
2022-08-07T04:54:40.408Z,18.80
2022-08-07T04:58:10.523Z,18.80
2022-08-07T05:00:17.449Z,18.90
2022-08-07T05:03:17.203Z,18.90
2022-08-07T05:06:19.688Z,18.90
2022-08-07T05:09:43.041Z,18.90
2022-08-07T05:12:15.582Z,18.90
2022-08-07T05:15:04.173Z,19.00
2022-08-07T05:17:51.569Z,19.00
2022-08-07T05:20:31.796Z,19.10
2022-08-07T05:23:04.370Z,19.10
2022-08-07T05:25:36.631Z,19.10
2022-08-07T05:28:23.381Z,19.20
2022-08-07T05:30:56.957Z,19.30
2022-08-07T05:33:28.435Z,19.30
2022-08-07T05:35:56.911Z,19.30
2022-08-07T05:38:59.437Z,19.40
2022-08-07T05:41:17.006Z,19.40
2022-08-07T05:44:12.071Z,19.40
2022-08-07T05:46:38.463Z,19.50
2022-08-07T05:49:12.126Z,19.60
2022-08-07T05:51:46.277Z,19.60
2022-08-07T05:54:30.623Z,19.70
2022-08-07T05:57:03.501Z,19.80
2022-08-07T05:59:39.028Z,19.90
2022-08-07T06:02:29.209Z,19.90
2022-08-07T06:05:06.562Z,20.00
2022-08-07T06:08:14.682Z,20.10
2022-08-07T06:10:24.355Z,20.30
2022-08-07T06:12:51.495Z,20.40
2022-08-07T06:15:20.419Z,20.60
2022-08-07T06:17:53.635Z,20.80
2022-08-07T06:20:49.889Z,21.10
2022-08-07T06:23:46.338Z,21.70
2022-08-07T06:26:02.212Z,22.50
2022-08-07T06:28:30.596Z,23.40
2022-08-07T06:30:58.693Z,24.30
2022-08-07T06:33:27.452Z,25.10
2022-08-07T06:36:11.983Z,26.00
2022-08-07T06:38:58.716Z,26.80
2022-08-07T06:42:02.510Z,27.60
2022-08-07T06:44:51.603Z,28.30
2022-08-07T06:47:21.086Z,28.80
2022-08-07T06:49:51.949Z,29.10
2022-08-07T06:52:35.586Z,29.50
2022-08-07T06:55:34.247Z,29.70
2022-08-07T06:58:10.426Z,30.00
2022-08-07T07:00:46.845Z,30.10
2022-08-07T07:03:26.328Z,30.40
2022-08-07T07:06:11.067Z,30.70
2022-08-07T07:08:39.959Z,31.00
2022-08-07T07:12:08.579Z,31.20
2022-08-07T07:14:03.987Z,31.40
2022-08-07T07:16:49.749Z,31.70
2022-08-07T07:19:55.463Z,31.70
2022-08-07T07:22:33.862Z,31.70
2022-08-07T07:25:14.153Z,31.80
2022-08-07T07:28:29.618Z,31.70
2022-08-07T07:31:04.792Z,31.70
2022-08-07T07:33:36.016Z,31.70
2022-08-07T07:36:12.521Z,31.60
2022-08-07T07:38:45.953Z,31.70
2022-08-07T07:41:17.692Z,31.70
2022-08-07T07:44:16.810Z,31.70
2022-08-07T07:46:54.478Z,31.60
2022-08-07T07:50:34.008Z,31.70
2022-08-07T07:52:17.143Z,31.90
2022-08-07T07:54:50.771Z,32.00
2022-08-07T07:57:53.385Z,32.20
2022-08-07T08:00:09.528Z,32.30
2022-08-07T08:03:01.009Z,32.30
2022-08-07T08:05:42.820Z,32.50
2022-08-07T08:08:35.669Z,32.80
2022-08-07T08:11:16.309Z,33.10
2022-08-07T08:13:58.119Z,33.30
2022-08-07T08:16:35.028Z,33.30
2022-08-07T08:19:09.867Z,33.30
2022-08-07T08:22:07.906Z,33.30
2022-08-07T08:25:24.907Z,33.30
2022-08-07T08:28:04.564Z,33.40
2022-08-07T08:30:34.946Z,33.40
2022-08-07T08:33:16.855Z,33.50
2022-08-07T08:35:50.891Z,33.40
2022-08-07T08:38:20.802Z,33.30
2022-08-07T08:41:05.569Z,33.40
2022-08-07T08:43:56.056Z,33.20
2022-08-07T08:46:54.783Z,33.20
2022-08-07T08:49:33.364Z,33.10
2022-08-07T08:52:16.853Z,33.20
2022-08-07T08:55:54.414Z,33.10
2022-08-07T08:58:28.879Z,33.30
2022-08-07T09:01:29.994Z,33.60
2022-08-07T09:04:13.390Z,34.00
2022-08-07T09:07:16.839Z,34.10
2022-08-07T09:10:14.143Z,33.80
2022-08-07T09:12:59.517Z,33.90
2022-08-07T09:16:24.120Z,34.10
2022-08-07T09:18:58.370Z,34.40
2022-08-07T09:21:58.232Z,34.60
2022-08-07T09:24:30.792Z,34.80
2022-08-07T09:27:17.269Z,35.00
2022-08-07T09:30:06.179Z,35.20
2022-08-07T09:32:56.700Z,35.30
2022-08-07T09:36:03.403Z,35.40
2022-08-07T09:38:50.270Z,35.60
2022-08-07T09:42:02.973Z,35.80
2022-08-07T09:47:50.041Z,36.00
2022-08-07T09:48:00.000Z,36.00
2022-08-07T09:50:48.380Z,36.00
2022-08-07T09:53:22.440Z,35.80
2022-08-07T09:56:19.704Z,35.70
2022-08-07T09:59:21.611Z,35.80
2022-08-07T10:02:06.512Z,35.80
2022-08-07T10:04:57.133Z,35.90
2022-08-07T10:07:39.672Z,36.00
2022-08-07T10:11:07.597Z,36.20
2022-08-07T10:14:01.847Z,36.30
2022-08-07T10:17:00.884Z,36.40
2022-08-07T10:19:46.411Z,36.50
2022-08-07T10:22:43.123Z,36.60
2022-08-07T10:25:42.201Z,36.40
2022-08-07T10:28:32.888Z,36.30
2022-08-07T10:31:15.091Z,36.20
2022-08-07T10:34:15.315Z,36.20
2022-08-07T10:37:13.939Z,36.30
2022-08-07T10:40:12.634Z,36.20
2022-08-07T10:43:01.515Z,36.10
2022-08-07T10:45:45.219Z,36.10
2022-08-07T10:49:14.726Z,36.20
2022-08-07T10:52:02.266Z,36.30
2022-08-07T10:54:45.100Z,36.40
2022-08-07T10:57:56.020Z,36.50
2022-08-07T11:00:36.340Z,36.60
2022-08-07T11:03:13.319Z,36.70
2022-08-07T11:05:54.742Z,36.80
2022-08-07T11:08:54.280Z,36.80
2022-08-07T11:11:29.624Z,36.80
2022-08-07T11:14:44.103Z,37.00
2022-08-07T11:17:09.036Z,37.00
2022-08-07T11:19:59.823Z,37.10
2022-08-07T11:22:45.529Z,37.10
2022-08-07T11:25:24.955Z,37.00
2022-08-07T11:28:06.658Z,36.80
2022-08-07T11:31:01.730Z,36.60
2022-08-07T11:33:59.394Z,36.60
2022-08-07T11:36:33.668Z,36.50
2022-08-07T11:39:19.691Z,36.60
2022-08-07T11:42:16.815Z,36.70
2022-08-07T11:44:58.626Z,36.70
2022-08-07T11:47:38.900Z,36.60
2022-08-07T11:50:57.268Z,36.70
2022-08-07T11:54:00.260Z,36.80
2022-08-07T11:56:59.369Z,36.90
2022-08-07T12:00:11.412Z,36.90
2022-08-07T12:02:52.060Z,36.90
2022-08-07T12:05:58.352Z,36.90
2022-08-07T12:08:45.633Z,36.90
2022-08-07T12:11:43.473Z,36.90
2022-08-07T12:14:32.895Z,36.90
2022-08-07T12:17:19.843Z,36.90
2022-08-07T12:20:30.427Z,36.90
2022-08-07T12:23:14.412Z,36.80
2022-08-07T12:26:22.835Z,36.60
2022-08-07T12:29:05.885Z,36.40
2022-08-07T12:32:01.817Z,36.30
2022-08-07T12:34:35.971Z,36.10
2022-08-07T12:37:08.684Z,36.00
2022-08-07T12:39:50.912Z,35.70
2022-08-07T12:42:27.797Z,35.50
2022-08-07T12:44:58.430Z,35.20
2022-08-07T12:47:54.103Z,35.00
2022-08-07T12:50:54.805Z,34.80
2022-08-07T12:54:24.098Z,34.60
2022-08-07T12:56:35.943Z,34.50
2022-08-07T12:59:08.113Z,34.30
2022-08-07T13:02:09.652Z,34.20
2022-08-07T13:05:14.898Z,34.20
2022-08-07T13:08:33.885Z,34.00
2022-08-07T13:11:21.318Z,33.80
2022-08-07T13:13:57.773Z,33.60
2022-08-07T13:16:51.746Z,33.30
2022-08-07T13:19:45.921Z,33.10
2022-08-07T13:22:27.663Z,33.00
2022-08-07T13:24:57.510Z,32.80
2022-08-07T13:28:10.620Z,32.80
2022-08-07T13:30:41.171Z,32.60
2022-08-07T13:34:30.926Z,32.50
2022-08-07T13:36:43.409Z,32.20
2022-08-07T13:39:28.488Z,32.00
2022-08-07T13:42:10.502Z,31.90
2022-08-07T13:44:39.665Z,31.90
2022-08-07T13:47:15.733Z,31.90
2022-08-07T13:50:34.580Z,31.80
2022-08-07T13:52:44.586Z,31.80
2022-08-07T13:55:19.173Z,31.60
2022-08-07T13:58:01.695Z,31.50
2022-08-07T14:00:39.551Z,31.50
2022-08-07T14:03:29.154Z,31.40
2022-08-07T14:06:09.404Z,31.30
2022-08-07T14:08:53.709Z,31.20
2022-08-07T14:11:23.524Z,31.00
2022-08-07T14:14:01.869Z,30.80
2022-08-07T14:16:34.220Z,30.60
2022-08-07T14:19:11.254Z,30.50
2022-08-07T14:22:03.902Z,30.50
2022-08-07T14:24:46.825Z,30.50
2022-08-07T14:28:12.615Z,30.60
2022-08-07T14:30:11.072Z,30.60
2022-08-07T14:32:48.112Z,30.50
2022-08-07T14:35:45.073Z,30.50
2022-08-07T14:38:26.400Z,30.50
2022-08-07T14:41:02.217Z,30.40
2022-08-07T14:43:59.470Z,30.40
2022-08-07T14:46:31.543Z,30.40
2022-08-07T14:49:56.086Z,30.40
2022-08-07T14:52:04.700Z,30.40
2022-08-07T14:54:41.735Z,30.40
2022-08-07T14:57:19.266Z,30.30
2022-08-07T15:02:39.036Z,30.10
2022-08-07T15:05:20.373Z,30.00
2022-08-07T15:16:31.233Z,29.70
2022-08-07T15:19:02.628Z,29.70
2022-08-07T15:21:44.368Z,29.60
2022-08-07T15:25:12.959Z,29.60
2022-08-07T15:27:22.387Z,29.50
2022-08-07T15:30:06.934Z,29.40
2022-08-07T15:33:01.492Z,29.30
2022-08-07T15:36:00.450Z,29.20
2022-08-07T15:38:32.985Z,29.10
2022-08-07T15:41:24.278Z,29.10
2022-08-07T15:44:12.408Z,28.90
2022-08-07T15:46:51.691Z,28.90
2022-08-07T15:52:30.713Z,28.80
2022-08-07T15:55:03.440Z,28.90
2022-08-07T15:57:48.072Z,28.90
2022-08-07T16:00:32.031Z,29.00
2022-08-07T16:03:46.442Z,29.00
2022-08-07T16:06:10.357Z,29.00
2022-08-07T16:08:41.799Z,29.10
2022-08-07T16:11:28.818Z,29.00
2022-08-07T16:14:12.936Z,29.10
2022-08-07T16:16:49.221Z,29.00
2022-08-07T16:19:59.793Z,29.00
2022-08-07T16:22:33.354Z,29.00
2022-08-07T16:25:54.141Z,28.90
2022-08-07T16:30:07.832Z,28.80
2022-08-07T16:31:57.728Z,28.70
2022-08-07T16:34:41.893Z,28.60
2022-08-07T16:38:05.477Z,28.50
2022-08-07T16:40:11.623Z,28.40
2022-08-07T16:44:02.624Z,28.30
2022-08-07T16:47:02.916Z,28.30
2022-08-07T16:50:28.730Z,28.30
2022-08-07T16:52:51.990Z,28.30
2022-08-07T16:55:47.159Z,28.30
2022-08-07T16:59:10.045Z,28.30
2022-08-07T17:01:49.563Z,28.20
2022-08-07T17:04:29.644Z,28.20
2022-08-07T17:07:08.451Z,28.10
2022-08-07T17:10:06.053Z,28.10
2022-08-07T17:13:17.255Z,28.10
2022-08-07T17:15:52.865Z,28.10
2022-08-07T17:18:39.487Z,28.10
2022-08-07T17:21:18.817Z,28.10
2022-08-07T17:24:02.024Z,28.20
2022-08-07T17:26:51.169Z,28.20
2022-08-07T17:30:14.489Z,28.10
2022-08-07T17:32:59.335Z,28.10
2022-08-07T17:35:54.899Z,28.00
2022-08-07T17:38:35.196Z,27.90
2022-08-07T17:42:02.257Z,27.90
2022-08-07T17:44:35.048Z,27.80
2022-08-07T17:47:08.567Z,27.80
2022-08-07T17:49:44.974Z,27.80
2022-08-07T17:52:39.750Z,27.80
2022-08-07T17:55:14.435Z,27.70
2022-08-07T17:58:07.191Z,27.60
2022-08-07T18:00:49.338Z,27.60
2022-08-07T18:04:03.887Z,27.50
2022-08-07T18:06:38.637Z,27.40
2022-08-07T18:09:08.739Z,27.30
2022-08-07T18:12:07.067Z,27.20
2022-08-07T18:14:46.367Z,27.20
2022-08-07T18:18:45.095Z,27.10
2022-08-07T18:21:07.958Z,27.00
2022-08-07T18:23:43.689Z,26.90
2022-08-07T18:26:27.782Z,26.90
2022-08-07T18:30:05.887Z,26.80
2022-08-07T18:32:16.911Z,26.80
2022-08-07T18:35:17.775Z,26.80
2022-08-07T18:38:55.492Z,26.70
2022-08-07T18:41:09.213Z,26.60
2022-08-07T18:44:00.226Z,26.60
2022-08-07T18:46:33.329Z,26.50
2022-08-07T18:50:19.276Z,26.50
2022-08-07T18:52:54.022Z,26.40
2022-08-07T18:55:58.205Z,26.30
2022-08-07T18:58:52.469Z,26.30
2022-08-07T19:02:20.159Z,26.20
2022-08-07T19:04:56.166Z,26.20
2022-08-07T19:07:51.605Z,26.10
2022-08-07T19:10:31.114Z,26.00
2022-08-07T19:13:11.545Z,26.00
2022-08-07T19:17:00.320Z,26.00
2022-08-07T19:19:04.855Z,25.90
2022-08-07T19:22:03.953Z,25.90
2022-08-07T19:24:46.191Z,25.80
2022-08-07T19:28:57.233Z,25.70
2022-08-07T19:31:03.179Z,25.70
2022-08-07T19:33:12.722Z,25.70
2022-08-07T19:35:42.187Z,25.60
2022-08-07T19:38:17.644Z,25.60
2022-08-07T19:40:50.812Z,25.60
2022-08-07T19:43:49.135Z,25.50
2022-08-07T19:46:26.664Z,25.40
2022-08-07T19:49:07.328Z,25.40
2022-08-07T19:51:51.853Z,25.30
2022-08-07T19:54:33.034Z,25.20
2022-08-07T19:58:00.841Z,25.20
2022-08-07T20:00:02.343Z,25.10
2022-08-07T20:02:52.275Z,25.00
2022-08-07T20:05:28.130Z,25.00
2022-08-07T20:08:02.114Z,24.90
2022-08-07T20:10:51.468Z,24.90
2022-08-07T20:13:32.144Z,24.80
2022-08-07T20:16:02.048Z,24.80
2022-08-07T20:18:32.302Z,24.80
2022-08-07T20:21:02.323Z,24.70
2022-08-07T20:23:40.814Z,24.60
2022-08-07T20:26:12.970Z,24.60
2022-08-07T20:28:51.737Z,24.50
2022-08-07T20:31:21.802Z,24.50
2022-08-07T20:33:56.528Z,24.40
2022-08-07T20:36:27.469Z,24.40
2022-08-07T20:39:00.252Z,24.30
2022-08-07T20:41:38.453Z,24.30
2022-08-07T20:44:12.904Z,24.20
2022-08-07T20:46:43.909Z,24.10
2022-08-07T20:50:00.291Z,24.10
2022-08-07T20:52:07.819Z,24.10
2022-08-07T20:54:45.574Z,24.00
2022-08-07T20:57:24.799Z,24.00
2022-08-07T21:00:07.320Z,23.90
2022-08-07T21:02:58.722Z,23.90
2022-08-07T21:05:54.918Z,23.80
2022-08-07T21:09:00.919Z,23.80
2022-08-07T21:11:49.916Z,23.70
2022-08-07T21:14:33.243Z,23.70
2022-08-07T21:18:01.047Z,23.60
2022-08-07T21:20:04.668Z,23.60
2022-08-07T21:22:39.483Z,23.50
2022-08-07T21:25:15.577Z,23.50
2022-08-07T21:28:16.689Z,23.40
2022-08-07T21:31:11.053Z,23.40
2022-08-07T21:33:54.780Z,23.30
2022-08-07T21:36:31.733Z,23.30
2022-08-07T21:39:45.432Z,23.20
2022-08-07T21:42:47.150Z,23.20
2022-08-07T21:46:08.776Z,23.10
2022-08-07T21:48:29.330Z,23.10
2022-08-07T21:51:32.527Z,23.00
2022-08-07T21:54:19.728Z,23.00
2022-08-07T21:57:39.400Z,23.00
2022-08-07T22:00:22.925Z,23.00
2022-08-07T22:03:31.755Z,22.90
2022-08-07T22:06:07.561Z,22.90
2022-08-07T22:08:59.202Z,22.90
2022-08-07T22:11:30.743Z,22.80
2022-08-07T22:14:15.309Z,22.80
2022-08-07T22:16:59.939Z,22.80
2022-08-07T22:19:34.895Z,22.80
2022-08-07T22:22:29.277Z,22.80
2022-08-07T22:25:03.268Z,22.70
2022-08-07T22:28:20.285Z,22.60
2022-08-07T22:30:27.112Z,22.60
2022-08-07T22:33:13.091Z,22.60
2022-08-07T22:35:56.261Z,22.50
2022-08-07T22:38:54.295Z,22.50
2022-08-07T22:42:02.422Z,22.50
2022-08-07T22:44:21.677Z,22.50
2022-08-07T22:47:04.132Z,22.40
2022-08-07T22:50:06.690Z,22.40
2022-08-07T22:52:58.587Z,22.40
2022-08-07T22:55:47.423Z,22.30
2022-08-07T22:58:49.279Z,22.30
2022-08-07T23:01:50.009Z,22.20
2022-08-07T23:04:57.798Z,22.20
2022-08-07T23:07:42.977Z,22.20
2022-08-07T23:10:38.481Z,22.20
2022-08-07T23:13:48.517Z,22.10
2022-08-07T23:16:54.948Z,22.10
2022-08-07T23:20:19.349Z,22.10
2022-08-07T23:23:05.081Z,22.00
2022-08-07T23:25:45.853Z,22.00
2022-08-07T23:28:28.900Z,21.90
2022-08-07T23:32:48.673Z,21.90
2022-08-07T23:35:01.077Z,21.90
2022-08-07T23:38:05.178Z,21.80
2022-08-07T23:40:50.965Z,21.80
2022-08-07T23:43:38.252Z,21.80
2022-08-07T23:46:37.341Z,21.70
2022-08-07T23:49:25.333Z,21.70
2022-08-07T23:53:17.606Z,21.70
2022-08-07T23:55:51.736Z,21.70
2022-08-07T23:58:42.644Z,21.70
